createdAt,value
2022-11-20T00:01:32.490Z,49.10
2022-11-20T00:03:59.973Z,63.97
2022-11-20T00:06:29.473Z,56.28
2022-11-20T00:08:59.443Z,65.43
2022-11-20T00:11:28.649Z,59.55
2022-11-20T00:14:00.309Z,66.70
2022-11-20T00:16:31.123Z,63.10
2022-11-20T00:18:58.307Z,63.58
2022-11-20T00:21:28.007Z,61.63
2022-11-20T00:23:56.869Z,62.13
2022-11-20T00:26:26.621Z,64.32
2022-11-20T00:29:00.946Z,68.07
2022-11-20T00:31:29.637Z,65.20
2022-11-20T00:33:57.110Z,58.17
2022-11-20T00:36:27.048Z,56.58
2022-11-20T00:38:59.468Z,58.38
2022-11-20T00:41:29.580Z,60.72
2022-11-20T00:43:57.489Z,65.63
2022-11-20T00:46:28.114Z,74.35
2022-11-20T00:48:55.790Z,62.25
2022-11-20T00:51:26.477Z,60.97
2022-11-20T00:53:56.307Z,58.80
2022-11-20T00:56:23.304Z,64.10
2022-11-20T00:58:51.058Z,63.75
2022-11-20T01:01:30.388Z,60.35
2022-11-20T01:04:00.893Z,56.70
2022-11-20T01:06:37.792Z,55.72
2022-11-20T01:09:10.888Z,62.83
2022-11-20T01:11:42.012Z,59.67
2022-11-20T01:14:18.068Z,68.80
2022-11-20T01:16:49.666Z,68.45
2022-11-20T01:19:21.507Z,55.35
2022-11-20T01:21:54.564Z,61.35
2022-11-20T01:24:22.976Z,65.57
2022-11-20T01:26:52.127Z,62.13
2022-11-20T01:29:25.234Z,65.55
2022-11-20T01:31:53.745Z,68.53
2022-11-20T01:34:23.256Z,59.88
2022-11-20T01:36:51.932Z,68.38
2022-11-20T01:39:26.667Z,51.30
2022-11-20T01:42:14.579Z,53.05
2022-11-20T01:45:02.155Z,60.22
2022-11-20T01:47:39.784Z,66.97
2022-11-20T01:50:16.806Z,60.50
2022-11-20T01:52:57.242Z,53.60
2022-11-20T01:55:31.039Z,60.13
2022-11-20T01:58:00.146Z,58.70
2022-11-20T02:00:27.840Z,54.53
2022-11-20T02:03:00.189Z,49.13
2022-11-20T02:05:38.225Z,75.35
2022-11-20T02:08:07.825Z,82.93
2022-11-20T02:10:35.649Z,65.72
2022-11-20T02:13:21.935Z,66.00
2022-11-20T02:15:50.007Z,47.95
2022-11-20T02:18:20.557Z,56.70
2022-11-20T02:21:02.382Z,53.00
2022-11-20T02:23:57.897Z,54.75
2022-11-20T02:26:27.778Z,58.15
2022-11-20T02:28:56.162Z,40.75
2022-11-20T02:31:23.206Z,43.33
2022-11-20T02:33:57.477Z,42.53
2022-11-20T02:36:27.830Z,43.42
2022-11-20T02:38:55.576Z,37.10
2022-11-20T02:41:23.247Z,38.03
2022-11-20T02:43:50.223Z,38.92
2022-11-20T02:46:17.736Z,36.58
2022-11-20T02:48:44.896Z,34.83
2022-11-20T02:51:11.908Z,35.33
2022-11-20T02:53:38.896Z,31.23
2022-11-20T02:56:06.835Z,32.30
2022-11-20T02:58:34.276Z,37.50
2022-11-20T03:01:01.602Z,30.33
2022-11-20T03:03:28.626Z,29.48
2022-11-20T03:05:55.605Z,27.40
2022-11-20T03:08:22.651Z,34.60
2022-11-20T03:10:49.603Z,30.88
2022-11-20T03:13:16.710Z,27.60
2022-11-20T03:15:43.770Z,30.25
2022-11-20T03:18:10.844Z,28.42
2022-11-20T03:20:37.900Z,27.80
2022-11-20T03:23:05.254Z,32.50
2022-11-20T03:25:32.471Z,35.47
2022-11-20T03:27:59.641Z,25.50
2022-11-20T03:30:30.586Z,27.45
2022-11-20T03:32:58.214Z,28.95
2022-11-20T03:35:25.639Z,28.60
2022-11-20T03:37:52.768Z,29.83
2022-11-20T03:40:19.849Z,32.13
2022-11-20T03:42:46.826Z,33.63
2022-11-20T03:45:19.692Z,38.22
2022-11-20T03:47:47.456Z,46.05
2022-11-20T03:50:15.378Z,46.03
2022-11-20T03:52:43.100Z,43.97
2022-11-20T03:55:10.638Z,47.75
2022-11-20T03:57:37.691Z,41.08
2022-11-20T04:00:06.888Z,45.63
2022-11-20T04:02:34.010Z,39.83
2022-11-20T04:05:01.159Z,36.30
2022-11-20T04:07:28.467Z,35.25
2022-11-20T04:09:55.487Z,43.03
2022-11-20T04:12:22.438Z,48.53
2022-11-20T04:14:49.607Z,46.13
2022-11-20T04:17:16.811Z,47.97
2022-11-20T04:19:43.912Z,36.65
2022-11-20T04:22:12.664Z,37.95
2022-11-20T04:24:39.750Z,48.90
2022-11-20T04:27:06.698Z,48.88
2022-11-20T04:29:33.742Z,39.42
2022-11-20T04:32:00.787Z,39.90
2022-11-20T04:34:27.884Z,35.17
2022-11-20T04:36:54.867Z,38.67
2022-11-20T04:39:22.175Z,41.42
2022-11-20T04:41:49.330Z,39.70
2022-11-20T04:44:16.426Z,49.83
2022-11-20T04:46:43.961Z,115.43
2022-11-20T04:49:12.755Z,74.57
2022-11-20T04:51:41.000Z,69.28
2022-11-20T04:54:08.165Z,45.95
2022-11-20T04:56:35.186Z,32.42
2022-11-20T04:59:03.619Z,49.42
2022-11-20T05:01:31.089Z,42.13
2022-11-20T05:03:58.232Z,27.42
2022-11-20T05:06:25.262Z,35.67
2022-11-20T05:08:52.347Z,54.70
2022-11-20T05:11:22.553Z,30.58
2022-11-20T05:13:51.576Z,26.67
2022-11-20T05:16:23.089Z,30.02
2022-11-20T05:18:55.237Z,28.08
2022-11-20T05:21:22.933Z,32.00
2022-11-20T05:23:50.049Z,33.75
2022-11-20T05:26:22.413Z,28.20
2022-11-20T05:28:50.897Z,27.80
2022-11-20T05:31:27.147Z,26.08
2022-11-20T05:33:57.349Z,30.10
2022-11-20T05:36:25.194Z,29.88
2022-11-20T05:38:56.665Z,25.40
2022-11-20T05:41:23.997Z,27.55
2022-11-20T05:43:51.881Z,27.35
2022-11-20T05:46:27.790Z,30.83
2022-11-20T05:48:57.220Z,33.17
2022-11-20T05:51:25.004Z,39.22
2022-11-20T05:53:52.014Z,30.08
2022-11-20T05:56:22.158Z,47.17
2022-11-20T05:58:50.401Z,27.80
2022-11-20T06:01:26.764Z,36.20
2022-11-20T06:03:56.191Z,28.90
2022-11-20T06:06:23.903Z,30.85
2022-11-20T06:08:51.216Z,29.23
2022-11-20T06:11:19.136Z,27.38
2022-11-20T06:13:47.308Z,35.90
2022-11-20T06:16:17.868Z,29.88
2022-11-20T06:18:45.222Z,27.20
2022-11-20T06:21:13.970Z,43.22
2022-11-20T06:23:41.953Z,33.58
2022-11-20T06:26:13.302Z,95.75
2022-11-20T06:28:40.496Z,31.67
2022-11-20T06:31:13.621Z,31.50
2022-11-20T06:33:41.765Z,45.10
2022-11-20T06:36:11.170Z,42.03
2022-11-20T06:38:39.517Z,35.63
2022-11-20T06:41:18.490Z,33.58
2022-11-20T06:43:45.793Z,42.33
2022-11-20T06:46:18.681Z,44.40
2022-11-20T06:48:48.492Z,49.10
2022-11-20T06:51:15.934Z,34.20
2022-11-20T06:53:43.289Z,67.35
2022-11-20T06:56:10.601Z,64.75
2022-11-20T06:58:38.472Z,52.80
2022-11-20T07:01:10.428Z,37.83
2022-11-20T07:03:38.241Z,50.97
2022-11-20T07:06:06.824Z,90.35
2022-11-20T07:08:35.099Z,38.67
2022-11-20T07:11:07.121Z,60.88
2022-11-20T07:13:34.492Z,41.10
2022-11-20T07:16:08.176Z,39.17
2022-11-20T07:18:35.661Z,39.58
2022-11-20T07:21:06.218Z,42.85
2022-11-20T07:23:33.317Z,23.73
2022-11-20T07:26:08.557Z,30.58
2022-11-20T07:28:36.758Z,24.38
2022-11-20T07:31:06.093Z,28.38
2022-11-20T07:33:33.589Z,22.20
2022-11-20T07:36:01.372Z,21.13
2022-11-20T07:38:28.615Z,20.25
2022-11-20T07:40:58.977Z,24.15
2022-11-20T07:43:26.421Z,21.90
2022-11-20T07:46:05.462Z,20.40
2022-11-20T07:48:33.601Z,22.77
2022-11-20T07:51:00.851Z,27.75
2022-11-20T07:53:29.822Z,23.50
2022-11-20T07:56:02.102Z,24.67
2022-11-20T07:58:34.172Z,27.35
2022-11-20T08:01:09.820Z,31.08
2022-11-20T08:03:38.804Z,33.15
2022-11-20T08:06:06.828Z,36.95
2022-11-20T08:08:36.144Z,34.28
2022-11-20T08:11:25.039Z,36.60
2022-11-20T08:14:10.559Z,35.70
2022-11-20T08:16:37.746Z,38.85
2022-11-20T08:19:05.253Z,42.20
2022-11-20T08:21:37.780Z,42.08
2022-11-20T08:24:06.417Z,39.80
2022-11-20T08:26:38.256Z,45.95
2022-11-20T08:29:06.467Z,49.85
2022-11-20T08:31:34.278Z,44.72
2022-11-20T08:34:04.933Z,40.15
2022-11-20T08:36:36.096Z,45.45
2022-11-20T08:39:04.312Z,45.47
2022-11-20T08:41:34.467Z,42.17
2022-11-20T08:44:09.226Z,40.97
2022-11-20T08:46:44.843Z,41.05
2022-11-20T08:49:14.961Z,40.03
2022-11-20T08:51:43.138Z,45.70
2022-11-20T08:54:10.491Z,42.95
2022-11-20T08:56:38.039Z,39.60
2022-11-20T08:59:43.473Z,41.25
2022-11-20T09:01:52.728Z,42.30
2022-11-20T09:04:22.649Z,37.38
2022-11-20T09:06:52.192Z,38.38
2022-11-20T09:09:20.182Z,37.70
2022-11-20T09:11:47.498Z,34.50
2022-11-20T09:14:14.596Z,35.90
2022-11-20T09:16:42.217Z,33.80
2022-11-20T09:21:59.718Z,39.08
2022-11-20T09:24:29.036Z,39.85
2022-11-20T09:26:56.325Z,37.80
2022-11-20T09:29:23.652Z,30.80
2022-11-20T09:31:51.529Z,36.15
2022-11-20T09:34:18.852Z,32.15
2022-11-20T09:36:46.194Z,29.73
2022-11-20T09:39:13.594Z,31.20
2022-11-20T09:41:41.298Z,29.27
2022-11-20T09:44:37.301Z,29.88
2022-11-20T09:47:18.069Z,29.10
2022-11-20T09:50:14.562Z,29.25
2022-11-20T09:53:10.062Z,25.50
2022-11-20T09:55:38.362Z,26.20
2022-11-20T09:58:26.789Z,24.35
2022-11-20T10:00:57.558Z,25.95
2022-11-20T10:04:06.353Z,22.92
2022-11-20T10:06:40.828Z,26.17
2022-11-20T10:09:25.353Z,28.48
2022-11-20T10:12:17.032Z,25.45
2022-11-20T10:15:05.965Z,27.67
2022-11-20T10:18:03.589Z,25.63
2022-11-20T10:21:14.384Z,26.88
2022-11-20T10:24:04.297Z,25.30
2022-11-20T10:26:49.436Z,24.33
2022-11-20T10:29:50.671Z,29.23
2022-11-20T10:32:21.770Z,24.80
2022-11-20T10:35:06.834Z,25.13
2022-11-20T10:37:36.990Z,27.13
2022-11-20T10:40:21.418Z,26.58
2022-11-20T10:43:01.603Z,26.73
2022-11-20T10:46:06.725Z,28.13
2022-11-20T10:48:35.149Z,30.10
2022-11-20T10:51:49.598Z,34.88
2022-11-20T10:54:46.902Z,29.58
2022-11-20T10:57:48.794Z,28.08
2022-11-20T11:00:18.836Z,32.25
2022-11-20T11:02:52.588Z,26.02
2022-11-20T11:05:42.540Z,31.20
2022-11-20T11:08:19.590Z,33.05
2022-11-20T11:10:59.047Z,33.47
2022-11-20T11:13:31.812Z,34.80
2022-11-20T11:15:59.467Z,37.50
2022-11-20T11:18:33.253Z,36.75
2022-11-20T11:21:03.087Z,39.80
2022-11-20T11:23:39.568Z,34.78
2022-11-20T11:26:22.269Z,35.20
2022-11-20T11:29:04.492Z,34.42
2022-11-20T11:31:36.534Z,37.53
2022-11-20T11:34:15.542Z,35.17
2022-11-20T11:36:53.625Z,32.53
2022-11-20T11:39:22.532Z,33.50
2022-11-20T11:41:50.244Z,34.83
2022-11-20T11:44:37.708Z,33.92
2022-11-20T11:47:11.267Z,31.67
2022-11-20T11:49:38.983Z,31.80
2022-11-20T11:52:17.292Z,32.50
2022-11-20T11:54:53.355Z,34.83
2022-11-20T11:57:51.362Z,32.92
2022-11-20T12:00:22.406Z,34.78
2022-11-20T12:03:45.048Z,33.13
2022-11-20T12:06:16.599Z,32.60
2022-11-20T12:09:00.631Z,31.08
2022-11-20T12:12:00.565Z,29.23
2022-11-20T12:14:39.789Z,29.23
2022-11-20T12:17:12.773Z,27.05
2022-11-20T12:19:40.441Z,30.15
2022-11-20T12:22:35.723Z,24.90
2022-11-20T12:25:31.805Z,28.60
2022-11-20T12:29:04.683Z,24.20
2022-11-20T12:32:09.152Z,27.30
2022-11-20T12:35:08.673Z,25.75
2022-11-20T12:38:05.580Z,28.42
2022-11-20T12:40:39.846Z,28.63
2022-11-20T12:46:26.540Z,26.98
2022-11-20T12:49:51.804Z,27.75
2022-11-20T12:52:48.807Z,26.15
2022-11-20T12:55:38.562Z,25.77
2022-11-20T12:58:39.324Z,27.40
2022-11-20T13:01:42.089Z,23.85
2022-11-20T13:04:42.169Z,24.70
2022-11-20T13:07:14.515Z,25.25
2022-11-20T13:09:48.581Z,23.52
2022-11-20T13:12:31.372Z,26.00
2022-11-20T13:15:28.157Z,25.27
2022-11-20T13:18:01.689Z,24.75
2022-11-20T13:20:31.421Z,22.98
2022-11-20T13:22:59.850Z,24.83
2022-11-20T13:25:45.180Z,23.52
2022-11-20T13:28:12.294Z,23.65
2022-11-20T13:30:55.012Z,24.98
2022-11-20T13:33:39.348Z,23.17
2022-11-20T13:36:27.097Z,22.48
2022-11-20T13:38:56.741Z,22.60
2022-11-20T13:41:38.936Z,21.88
2022-11-20T13:44:31.141Z,23.10
2022-11-20T13:46:58.344Z,25.20
2022-11-20T13:49:43.842Z,22.02
2022-11-20T13:52:41.541Z,23.75
2022-11-20T13:55:26.161Z,22.97
2022-11-20T13:58:12.713Z,28.02
2022-11-20T14:00:58.874Z,22.42
2022-11-20T14:03:58.961Z,24.13
2022-11-20T14:06:29.661Z,22.10
2022-11-20T14:08:57.654Z,24.48
2022-11-20T14:11:30.631Z,21.50
2022-11-20T14:14:22.199Z,23.90
2022-11-20T14:16:51.426Z,24.42
2022-11-20T14:19:21.485Z,29.88
2022-11-20T14:22:08.914Z,20.55
2022-11-20T14:24:36.023Z,22.15
2022-11-20T14:27:03.481Z,23.83
2022-11-20T14:29:36.449Z,22.10
2022-11-20T14:32:05.007Z,21.85
2022-11-20T14:34:39.554Z,23.83
2022-11-20T14:37:16.881Z,21.83
2022-11-20T14:39:51.909Z,22.70
2022-11-20T14:42:23.259Z,20.77
2022-11-20T14:44:53.013Z,20.75
2022-11-20T14:47:27.210Z,22.75
2022-11-20T14:49:56.262Z,23.50
2022-11-20T14:52:28.943Z,22.60
2022-11-20T14:55:02.133Z,24.13
2022-11-20T14:57:37.642Z,21.67
2022-11-20T15:00:14.236Z,21.88
2022-11-20T15:02:49.922Z,21.40
2022-11-20T15:05:20.024Z,21.58
2022-11-20T15:08:06.286Z,22.05
2022-11-20T15:10:33.594Z,24.75
2022-11-20T15:13:09.777Z,23.88
2022-11-20T15:16:00.357Z,22.75
2022-11-20T15:18:42.565Z,22.52
2022-11-20T15:21:19.517Z,24.40
2022-11-20T15:23:48.655Z,23.88
2022-11-20T15:26:25.899Z,21.35
2022-11-20T15:28:54.547Z,24.35
2022-11-20T15:31:26.181Z,29.33
2022-11-20T15:33:56.159Z,24.55
2022-11-20T15:36:25.186Z,29.17
2022-11-20T15:38:52.393Z,27.85
2022-11-20T15:41:19.432Z,24.58
2022-11-20T15:43:46.773Z,24.33
2022-11-20T15:46:23.952Z,25.13
2022-11-20T15:48:59.026Z,26.70
2022-11-20T15:51:36.173Z,28.13
2022-11-20T15:54:16.121Z,26.65
2022-11-20T15:56:43.168Z,30.33
2022-11-20T15:59:10.737Z,28.08
2022-11-20T16:01:38.047Z,30.70
2022-11-20T16:04:11.299Z,53.33
2022-11-20T16:06:38.735Z,36.13
2022-11-20T16:09:06.107Z,26.63
2022-11-20T16:11:33.458Z,32.63
2022-11-20T16:14:19.348Z,38.55
2022-11-20T16:16:46.712Z,39.28
2022-11-20T16:19:15.281Z,33.78
2022-11-20T16:21:43.259Z,36.63
2022-11-20T16:24:14.797Z,34.55
2022-11-20T16:26:42.774Z,36.42
2022-11-20T16:29:11.088Z,35.97
2022-11-20T16:31:39.204Z,31.98
2022-11-20T16:34:12.216Z,33.95
2022-11-20T16:36:45.931Z,34.67
2022-11-20T16:39:13.503Z,39.83
2022-11-20T16:41:40.612Z,42.20
2022-11-20T16:44:11.053Z,46.78
2022-11-20T16:46:40.919Z,37.88
2022-11-20T16:49:14.002Z,35.25
2022-11-20T16:51:41.832Z,34.53
2022-11-20T16:54:10.371Z,35.47
2022-11-20T16:56:37.983Z,38.72
2022-11-20T16:59:08.450Z,33.53
2022-11-20T17:01:38.713Z,30.83
2022-11-20T17:04:07.310Z,32.95
2022-11-20T17:06:44.224Z,43.63
2022-11-20T17:09:11.703Z,38.90
2022-11-20T17:11:38.999Z,37.65
2022-11-20T17:14:09.842Z,37.08
2022-11-20T17:16:38.650Z,41.88
2022-11-20T17:19:05.992Z,36.60
2022-11-20T17:21:38.241Z,33.63
2022-11-20T17:24:08.627Z,32.92
2022-11-20T17:26:38.466Z,36.53
2022-11-20T17:29:13.039Z,34.30
2022-11-20T17:31:40.439Z,36.83
2022-11-20T17:34:11.599Z,35.92
2022-11-20T17:36:45.455Z,33.47
2022-11-20T17:39:15.511Z,33.13
2022-11-20T17:41:42.913Z,36.92
2022-11-20T17:44:11.839Z,39.80
2022-11-20T17:46:39.146Z,38.92
2022-11-20T17:49:07.814Z,48.20
2022-11-20T17:51:35.339Z,39.08
2022-11-20T17:54:07.664Z,41.13
2022-11-20T17:56:54.429Z,33.88
2022-11-20T17:59:21.837Z,33.78
2022-11-20T18:01:49.016Z,36.58
2022-11-20T18:04:16.948Z,38.50
2022-11-20T18:06:44.123Z,34.33
2022-11-20T18:09:11.579Z,37.30
2022-11-20T18:11:42.027Z,35.92
2022-11-20T18:14:32.382Z,36.33
2022-11-20T18:17:05.507Z,35.85
2022-11-20T18:19:47.739Z,37.25
2022-11-20T18:22:22.936Z,33.83
2022-11-20T18:24:50.101Z,37.20
2022-11-20T18:27:20.728Z,37.55
2022-11-20T18:29:51.786Z,37.55
2022-11-20T18:32:21.603Z,37.25
2022-11-20T18:34:49.139Z,33.70
2022-11-20T18:37:17.293Z,34.13
2022-11-20T18:39:44.496Z,37.50
2022-11-20T18:42:34.962Z,32.67
2022-11-20T18:45:07.101Z,31.73
2022-11-20T18:47:40.362Z,30.00
2022-11-20T18:50:09.808Z,37.87
2022-11-20T18:52:44.726Z,32.78
2022-11-20T18:55:12.981Z,31.17
2022-11-20T18:57:40.267Z,34.40
2022-11-20T19:00:09.913Z,33.47
2022-11-20T19:02:42.068Z,40.90
2022-11-20T19:05:12.488Z,31.15
2022-11-20T19:07:40.157Z,21.45
2022-11-20T19:10:09.223Z,29.83
2022-11-20T19:12:36.319Z,40.22
2022-11-20T19:15:11.532Z,40.53
2022-11-20T19:17:38.763Z,39.78
2022-11-20T19:20:08.312Z,40.88
2022-11-20T19:22:35.391Z,35.05
2022-11-20T19:25:02.501Z,37.42
2022-11-20T19:27:29.622Z,31.52
2022-11-20T19:30:03.932Z,42.53
2022-11-20T19:32:31.291Z,40.78
2022-11-20T19:34:58.265Z,43.53
2022-11-20T19:37:25.396Z,43.67
2022-11-20T19:39:52.475Z,39.65
2022-11-20T19:42:19.552Z,39.50
2022-11-20T19:44:46.945Z,35.85
2022-11-20T19:47:14.965Z,40.63
2022-11-20T19:49:42.257Z,40.78
2022-11-20T19:52:09.534Z,42.17
2022-11-20T19:54:37.982Z,35.28
2022-11-20T19:57:05.355Z,39.00
2022-11-20T19:59:32.405Z,33.58
2022-11-20T20:01:59.653Z,42.25
2022-11-20T20:04:27.485Z,39.47
2022-11-20T20:06:54.674Z,38.85
2022-11-20T20:09:23.826Z,45.22
2022-11-20T20:11:51.103Z,45.50
2022-11-20T20:14:18.521Z,42.90
2022-11-20T20:16:45.715Z,47.55
2022-11-20T20:19:15.319Z,52.38
2022-11-20T20:21:43.107Z,47.83
2022-11-20T20:24:12.076Z,46.58
2022-11-20T20:26:39.320Z,44.40
2022-11-20T20:29:06.390Z,54.15
2022-11-20T20:31:34.458Z,51.25
2022-11-20T20:34:03.422Z,46.42
2022-11-20T20:36:30.731Z,53.88
2022-11-20T20:39:05.141Z,51.53
2022-11-20T20:41:32.706Z,49.17
2022-11-20T20:44:18.245Z,59.80
2022-11-20T20:46:45.326Z,69.97
2022-11-20T20:49:13.309Z,84.72
2022-11-20T20:51:40.435Z,67.10
2022-11-20T20:54:07.498Z,64.18
2022-11-20T20:56:34.623Z,60.40
2022-11-20T20:59:02.454Z,51.85
2022-11-20T21:01:29.845Z,60.28
2022-11-20T21:03:58.078Z,50.85
2022-11-20T21:06:25.935Z,52.08
2022-11-20T21:08:53.751Z,49.22
2022-11-20T21:11:21.202Z,51.65
2022-11-20T21:13:49.698Z,49.28
2022-11-20T21:16:20.768Z,49.85
2022-11-20T21:18:48.304Z,48.50
2022-11-20T21:21:35.280Z,50.25
2022-11-20T21:24:03.193Z,48.40
2022-11-20T21:26:30.307Z,46.65
2022-11-20T21:28:57.885Z,50.80
2022-11-20T21:31:27.196Z,50.13
2022-11-20T21:33:56.662Z,45.95
2022-11-20T21:36:27.895Z,51.80
2022-11-20T21:38:57.010Z,40.47
2022-11-20T21:41:26.584Z,41.65
2022-11-20T21:44:29.606Z,39.80
2022-11-20T21:46:46.541Z,42.03
2022-11-20T21:49:15.348Z,35.78
2022-11-20T21:51:42.570Z,39.78
2022-11-20T21:54:10.669Z,41.60
2022-11-20T21:56:37.797Z,43.03
2022-11-20T21:59:04.904Z,44.88
2022-11-20T22:01:32.240Z,40.17
2022-11-20T22:04:02.106Z,36.83
2022-11-20T22:06:34.515Z,38.95
2022-11-20T22:09:02.884Z,38.97
2022-11-20T22:11:30.660Z,40.58
2022-11-20T22:14:16.707Z,39.63
2022-11-20T22:16:43.961Z,35.30
2022-11-20T22:19:11.452Z,40.83
2022-11-20T22:21:40.841Z,37.53
2022-11-20T22:24:12.383Z,36.97
2022-11-20T22:26:40.725Z,34.30
2022-11-20T22:29:13.802Z,30.52
2022-11-20T22:31:41.457Z,31.33
2022-11-20T22:34:13.966Z,32.20
2022-11-20T22:36:41.910Z,31.42
2022-11-20T22:39:09.792Z,31.83
2022-11-20T22:41:36.895Z,30.00
2022-11-20T22:44:08.811Z,32.17
2022-11-20T22:46:37.972Z,37.15
2022-11-20T22:49:09.383Z,34.95
2022-11-20T22:51:41.570Z,32.05
2022-11-20T22:54:13.714Z,37.03
2022-11-20T22:56:41.316Z,36.55
2022-11-20T22:59:10.399Z,36.88
2022-11-20T23:01:38.136Z,41.17
2022-11-20T23:04:10.265Z,53.95
2022-11-20T23:06:37.466Z,58.13
2022-11-20T23:09:09.031Z,50.40
2022-11-20T23:11:37.080Z,49.47
2022-11-20T23:14:13.455Z,49.33
2022-11-20T23:16:40.726Z,54.42
2022-11-20T23:19:12.213Z,50.92
2022-11-20T23:21:41.334Z,49.83
2022-11-20T23:24:11.133Z,47.70
2022-11-20T23:26:40.917Z,50.05
2022-11-20T23:29:09.999Z,46.28
2022-11-20T23:31:37.323Z,45.15
2022-11-20T23:34:05.267Z,38.40
2022-11-20T23:36:32.613Z,35.53
2022-11-20T23:38:59.717Z,36.83
2022-11-20T23:41:26.808Z,42.50
2022-11-20T23:43:54.106Z,45.28
2022-11-20T23:46:21.116Z,47.22
2022-11-20T23:48:48.088Z,37.13
2022-11-20T23:51:15.221Z,41.33
2022-11-20T23:53:42.596Z,36.33
2022-11-20T23:56:14.528Z,36.30
2022-11-20T23:58:42.393Z,41.53
